createdAt,value
2023-05-23T00:02:00.418Z,18.77
2023-05-23T00:04:28.247Z,19.00
2023-05-23T00:06:56.532Z,18.27
2023-05-23T00:09:24.338Z,18.70
2023-05-23T00:11:51.988Z,20.03
2023-05-23T00:14:19.732Z,19.83
2023-05-23T00:16:50.732Z,18.77
2023-05-23T00:19:18.818Z,18.53
2023-05-23T00:21:49.517Z,17.63
2023-05-23T00:24:18.758Z,17.77
2023-05-23T00:26:46.976Z,17.60
2023-05-23T00:29:17.496Z,17.50
2023-05-23T00:31:46.700Z,17.37
2023-05-23T00:34:17.742Z,18.40
2023-05-23T00:36:47.764Z,17.50
2023-05-23T00:39:19.701Z,18.07
2023-05-23T00:41:51.117Z,17.60
2023-05-23T00:44:21.232Z,18.50
2023-05-23T00:46:52.439Z,17.10
2023-05-23T00:49:21.894Z,17.40
2023-05-23T00:51:50.398Z,17.00
2023-05-23T00:54:21.992Z,17.27
2023-05-23T00:56:49.670Z,18.30
2023-05-23T00:59:17.721Z,18.60
2023-05-23T01:01:46.927Z,16.37
2023-05-23T01:04:16.702Z,17.63
2023-05-23T01:06:46.988Z,17.70
2023-05-23T01:09:15.988Z,18.57
2023-05-23T01:11:50.691Z,18.50
2023-05-23T01:14:23.360Z,17.87
2023-05-23T01:16:57.866Z,17.43
2023-05-23T01:19:49.486Z,18.37
2023-05-23T01:22:30.402Z,17.07
2023-05-23T01:25:08.499Z,19.40
2023-05-23T01:27:50.404Z,18.90
2023-05-23T01:30:21.681Z,19.33
2023-05-23T01:32:51.882Z,18.37
2023-05-23T01:35:23.451Z,19.20
2023-05-23T01:37:51.090Z,19.27
2023-05-23T01:40:18.766Z,17.93
2023-05-23T01:42:48.651Z,18.27
2023-05-23T01:45:17.452Z,20.50
2023-05-23T01:47:47.114Z,19.60
2023-05-23T01:50:15.769Z,18.50
2023-05-23T01:52:43.803Z,18.40
2023-05-23T01:55:11.904Z,18.53
2023-05-23T01:57:40.538Z,19.90
2023-05-23T02:00:12.133Z,19.50
2023-05-23T02:02:40.098Z,21.37
2023-05-23T02:05:08.398Z,20.00
2023-05-23T02:07:36.099Z,20.50
2023-05-23T02:10:05.104Z,20.67
2023-05-23T02:12:32.740Z,21.43
2023-05-23T02:15:00.422Z,20.27
2023-05-23T02:17:29.384Z,20.57
2023-05-23T02:19:57.363Z,21.10
2023-05-23T02:22:25.588Z,19.87
2023-05-23T02:24:53.410Z,20.80
2023-05-23T02:27:21.059Z,21.50
2023-05-23T02:29:48.714Z,19.97
2023-05-23T02:32:16.410Z,20.40
2023-05-23T02:34:46.518Z,20.30
2023-05-23T02:37:15.025Z,19.93
2023-05-23T02:39:42.785Z,19.13
2023-05-23T02:42:10.876Z,21.00
2023-05-23T02:44:38.613Z,19.40
2023-05-23T02:47:07.686Z,19.73
2023-05-23T02:49:35.358Z,19.57
2023-05-23T02:52:04.322Z,22.07
2023-05-23T02:54:32.129Z,18.77
2023-05-23T02:56:59.762Z,19.67
2023-05-23T02:59:27.383Z,18.50
2023-05-23T03:01:56.650Z,20.33
2023-05-23T03:04:24.329Z,20.33
2023-05-23T03:06:54.330Z,19.33
2023-05-23T03:09:23.354Z,20.97
2023-05-23T03:11:51.162Z,20.37
2023-05-23T03:14:18.813Z,21.13
2023-05-23T03:16:46.526Z,21.90
2023-05-23T03:19:14.537Z,21.63
2023-05-23T03:21:42.176Z,23.77
2023-05-23T03:24:09.794Z,22.00
2023-05-23T03:26:38.789Z,21.27
2023-05-23T03:29:07.140Z,21.40
2023-05-23T03:31:34.766Z,20.50
2023-05-23T03:34:02.469Z,21.50
2023-05-23T03:36:33.185Z,21.10
2023-05-23T03:39:01.223Z,20.67
2023-05-23T03:41:28.844Z,21.73
2023-05-23T03:43:58.402Z,21.10
2023-05-23T03:46:26.155Z,21.60
2023-05-23T03:48:53.880Z,20.90
2023-05-23T03:51:21.507Z,20.70
2023-05-23T03:53:49.118Z,19.83
2023-05-23T03:56:16.843Z,19.70
2023-05-23T03:58:44.596Z,20.47
2023-05-23T04:01:13.526Z,20.57
2023-05-23T04:03:41.359Z,18.67
2023-05-23T04:06:09.210Z,19.73
2023-05-23T04:08:36.793Z,18.33
2023-05-23T04:11:04.551Z,18.67
2023-05-23T04:13:33.212Z,17.77
2023-05-23T04:16:01.455Z,19.53
2023-05-23T04:18:30.451Z,18.27
2023-05-23T04:20:58.236Z,17.33
2023-05-23T04:23:25.901Z,18.33
2023-05-23T04:25:53.520Z,17.50
2023-05-23T04:28:21.201Z,18.27
2023-05-23T04:30:49.459Z,18.13
2023-05-23T04:33:18.847Z,19.13
2023-05-23T04:35:47.920Z,17.33
2023-05-23T04:38:15.636Z,18.77
2023-05-23T04:40:43.238Z,19.37
2023-05-23T04:43:14.289Z,19.30
2023-05-23T04:45:42.751Z,20.00
2023-05-23T04:48:13.065Z,18.93
2023-05-23T04:50:40.797Z,19.33
2023-05-23T04:53:09.785Z,20.63
2023-05-23T04:55:37.549Z,21.20
2023-05-23T04:58:05.381Z,20.70
2023-05-23T05:00:33.115Z,20.47
2023-05-23T05:03:01.025Z,20.20
2023-05-23T05:05:28.764Z,20.80
2023-05-23T05:07:56.394Z,22.53
2023-05-23T05:10:25.414Z,23.50
2023-05-23T05:12:53.066Z,22.90
2023-05-23T05:15:20.812Z,23.87
2023-05-23T05:17:49.986Z,24.87
2023-05-23T05:20:18.339Z,23.53
2023-05-23T05:22:46.691Z,22.70
2023-05-23T05:25:14.317Z,22.67
2023-05-23T05:27:43.692Z,22.80
2023-05-23T05:30:12.145Z,22.37
2023-05-23T05:32:39.763Z,23.53
2023-05-23T05:35:09.215Z,24.07
2023-05-23T05:37:36.954Z,24.63
2023-05-23T05:40:08.385Z,23.83
2023-05-23T05:42:35.959Z,24.47
2023-05-23T05:45:05.635Z,24.60
2023-05-23T05:47:34.391Z,25.07
2023-05-23T05:50:03.323Z,25.73
2023-05-23T05:52:31.145Z,23.50
2023-05-23T05:54:58.910Z,22.80
2023-05-23T05:57:26.565Z,25.63
2023-05-23T05:59:54.138Z,23.97
2023-05-23T06:02:23.213Z,24.47
2023-05-23T06:04:51.053Z,24.20
2023-05-23T06:07:18.735Z,24.20
2023-05-23T06:09:46.713Z,22.47
2023-05-23T06:12:14.369Z,24.80
2023-05-23T06:14:42.034Z,21.87
2023-05-23T06:17:10.039Z,26.40
2023-05-23T06:19:39.700Z,26.60
2023-05-23T06:22:07.342Z,26.17
2023-05-23T06:24:35.046Z,28.03
2023-05-23T06:27:02.805Z,26.50
2023-05-23T06:29:31.634Z,23.60
2023-05-23T06:31:59.207Z,22.30
2023-05-23T06:34:26.851Z,22.37
2023-05-23T06:36:55.843Z,21.50
2023-05-23T06:39:23.550Z,23.00
2023-05-23T06:41:51.325Z,23.47
2023-05-23T06:44:19.125Z,21.60
2023-05-23T06:46:47.519Z,20.60
2023-05-23T06:49:16.103Z,21.30
2023-05-23T06:51:43.849Z,24.30
2023-05-23T06:54:12.988Z,25.50
2023-05-23T06:56:40.651Z,24.57
2023-05-23T06:59:08.296Z,25.77
2023-05-23T07:01:36.238Z,26.40
2023-05-23T07:04:03.831Z,27.73
2023-05-23T07:06:32.788Z,26.23
2023-05-23T07:09:00.508Z,28.50
2023-05-23T07:11:29.484Z,25.93
2023-05-23T07:13:57.290Z,27.87
2023-05-23T07:16:25.046Z,26.77
2023-05-23T07:18:52.832Z,25.30
2023-05-23T07:21:20.613Z,23.37
2023-05-23T07:23:48.257Z,21.87
2023-05-23T07:26:16.141Z,22.50
2023-05-23T07:28:45.238Z,21.07
2023-05-23T07:31:13.554Z,20.23
2023-05-23T07:33:41.393Z,22.23
2023-05-23T07:36:09.754Z,19.40
2023-05-23T07:38:37.437Z,19.57
2023-05-23T07:41:11.528Z,19.30
2023-05-23T07:43:40.226Z,19.27
2023-05-23T07:46:09.317Z,18.73
2023-05-23T07:48:37.028Z,18.63
2023-05-23T07:51:04.948Z,18.40
2023-05-23T07:53:32.546Z,17.00
2023-05-23T07:56:00.182Z,17.97
2023-05-23T07:58:27.910Z,16.30
2023-05-23T08:00:55.587Z,16.57
2023-05-23T08:03:24.567Z,17.07
2023-05-23T08:05:52.167Z,16.80
2023-05-23T08:08:19.803Z,15.00
2023-05-23T08:10:47.425Z,16.03
2023-05-23T08:13:15.117Z,15.90
2023-05-23T08:15:42.881Z,15.40
2023-05-23T08:18:11.320Z,15.57
2023-05-23T08:20:40.439Z,15.67
2023-05-23T08:23:08.245Z,15.20
2023-05-23T08:25:36.340Z,15.20
2023-05-23T08:28:04.028Z,16.43
2023-05-23T08:30:33.806Z,15.53
2023-05-23T08:33:04.591Z,16.53
2023-05-23T08:35:35.112Z,16.90
2023-05-23T08:38:05.954Z,16.90
2023-05-23T08:40:33.641Z,16.47
2023-05-23T08:43:01.422Z,15.53
2023-05-23T08:45:30.419Z,15.50
2023-05-23T08:48:01.987Z,16.00
2023-05-23T08:50:31.005Z,15.80
2023-05-23T08:53:00.151Z,16.17
2023-05-23T08:55:30.622Z,17.27
2023-05-23T08:58:00.298Z,16.83
2023-05-23T09:00:29.298Z,17.23
2023-05-23T09:02:58.247Z,16.80
2023-05-23T09:05:27.755Z,19.17
2023-05-23T09:07:56.818Z,17.17
2023-05-23T09:10:24.871Z,18.50
2023-05-23T09:12:53.937Z,18.07
2023-05-23T09:15:22.349Z,17.77
2023-05-23T09:17:50.469Z,16.63
2023-05-23T09:20:19.418Z,18.27
2023-05-23T09:22:48.600Z,19.50
2023-05-23T09:25:16.538Z,18.43
2023-05-23T09:27:47.810Z,18.57
2023-05-23T09:30:19.020Z,16.77
2023-05-23T09:33:02.040Z,18.47
2023-05-23T09:35:31.885Z,17.67
2023-05-23T09:38:00.322Z,18.27
2023-05-23T09:40:32.515Z,17.90
2023-05-23T09:43:03.996Z,19.60
2023-05-23T09:45:33.862Z,17.97
2023-05-23T09:48:01.727Z,17.03
2023-05-23T09:50:33.302Z,16.57
2023-05-23T09:53:01.320Z,17.63
2023-05-23T09:55:29.123Z,18.00
2023-05-23T09:57:59.635Z,17.33
2023-05-23T10:00:28.672Z,17.77
2023-05-23T10:03:08.112Z,16.60
2023-05-23T10:05:39.691Z,16.10
2023-05-23T10:08:11.908Z,18.20
2023-05-23T10:11:12.191Z,16.10
2023-05-23T10:13:42.487Z,18.23
2023-05-23T10:16:16.006Z,18.07
2023-05-23T10:18:46.256Z,19.67
2023-05-23T10:21:20.863Z,18.83
2023-05-23T10:23:49.112Z,17.70
2023-05-23T10:26:18.003Z,19.23
2023-05-23T10:28:47.394Z,18.10
2023-05-23T10:31:15.432Z,16.90
2023-05-23T10:33:52.459Z,19.27
2023-05-23T10:36:26.411Z,18.30
2023-05-23T10:38:59.722Z,19.97
2023-05-23T10:41:45.470Z,18.90
2023-05-23T10:44:17.856Z,18.63
2023-05-23T10:46:54.099Z,17.63
2023-05-23T10:49:23.533Z,18.53
2023-05-23T10:51:52.483Z,18.13
2023-05-23T10:54:21.128Z,18.40
2023-05-23T10:57:03.882Z,18.03
2023-05-23T10:59:32.006Z,20.03
2023-05-23T11:02:01.961Z,18.40
2023-05-23T11:04:31.037Z,19.53
2023-05-23T11:06:59.358Z,18.73
2023-05-23T11:09:27.043Z,18.90
2023-05-23T11:11:58.029Z,19.43
2023-05-23T11:14:55.545Z,18.10
2023-05-23T11:17:34.362Z,17.63
2023-05-23T11:20:07.358Z,18.47
2023-05-23T11:22:36.096Z,18.67
2023-05-23T11:25:08.973Z,18.00
2023-05-23T11:27:38.790Z,18.27
2023-05-23T11:30:09.908Z,18.13
2023-05-23T11:32:38.390Z,18.33
2023-05-23T11:35:09.855Z,18.53
2023-05-23T11:37:39.397Z,18.90
2023-05-23T11:40:30.102Z,19.77
2023-05-23T11:42:58.355Z,18.33
2023-05-23T11:45:26.760Z,19.40
2023-05-23T11:47:54.982Z,17.50
2023-05-23T11:50:24.911Z,18.67
2023-05-23T11:52:52.754Z,18.83
2023-05-23T11:55:21.653Z,18.83
2023-05-23T11:57:49.812Z,17.53
2023-05-23T12:00:18.815Z,17.87
2023-05-23T12:02:47.895Z,17.37
2023-05-23T12:05:16.260Z,17.83
2023-05-23T12:07:46.394Z,17.73
2023-05-23T12:10:15.416Z,17.40
2023-05-23T12:12:43.457Z,16.60
2023-05-23T12:15:12.259Z,16.40
2023-05-23T12:17:40.940Z,16.70
2023-05-23T12:20:09.266Z,16.67
2023-05-23T12:22:36.972Z,16.83
2023-05-23T12:25:09.921Z,18.20
2023-05-23T12:27:37.926Z,18.10
2023-05-23T12:30:07.349Z,16.20
2023-05-23T12:32:35.545Z,20.07
2023-05-23T12:35:04.892Z,17.23
2023-05-23T12:37:32.864Z,16.37
2023-05-23T12:40:13.055Z,18.80
2023-05-23T12:42:50.966Z,17.00
2023-05-23T12:45:18.908Z,16.30
2023-05-23T12:47:46.685Z,24.97
2023-05-23T12:50:14.335Z,16.23
2023-05-23T12:52:41.980Z,18.73
2023-05-23T12:55:11.969Z,21.43
2023-05-23T12:57:39.727Z,19.10
2023-05-23T13:00:09.213Z,16.10
2023-05-23T13:02:37.217Z,15.40
2023-05-23T13:05:05.130Z,14.43
2023-05-23T13:07:33.546Z,16.37
2023-05-23T13:10:01.704Z,15.13
2023-05-23T13:12:30.962Z,18.23
2023-05-23T13:14:58.986Z,15.87
2023-05-23T13:17:26.788Z,16.43
2023-05-23T13:19:54.470Z,14.17
2023-05-23T13:22:22.112Z,15.43
2023-05-23T13:24:49.762Z,16.37
2023-05-23T13:27:17.513Z,15.67
2023-05-23T13:29:46.771Z,16.83
2023-05-23T13:32:14.374Z,17.33
2023-05-23T13:34:42.700Z,15.70
2023-05-23T13:37:10.433Z,13.77
2023-05-23T13:39:38.118Z,15.43
2023-05-23T13:42:06.125Z,16.27
2023-05-23T13:44:33.703Z,14.93
2023-05-23T13:47:13.275Z,16.33
2023-05-23T13:49:41.741Z,14.13
2023-05-23T13:52:09.501Z,16.83
2023-05-23T13:54:37.353Z,13.60
2023-05-23T13:57:05.608Z,12.20
2023-05-23T13:59:33.375Z,15.83
2023-05-23T14:02:01.195Z,13.40
2023-05-23T14:04:30.165Z,14.83
2023-05-23T14:06:57.773Z,17.67
2023-05-23T14:09:25.588Z,19.77
2023-05-23T14:11:53.704Z,11.90
2023-05-23T14:14:21.340Z,18.13
2023-05-23T14:16:51.901Z,13.43
2023-05-23T14:19:19.798Z,13.80
2023-05-23T14:21:48.837Z,13.60
2023-05-23T14:24:16.636Z,13.53
2023-05-23T14:26:44.329Z,13.90
2023-05-23T14:29:12.067Z,18.00
2023-05-23T14:31:39.788Z,13.87
2023-05-23T14:34:07.527Z,28.67
2023-05-23T14:36:36.919Z,15.47
2023-05-23T14:39:09.091Z,19.00
2023-05-23T14:41:38.737Z,17.80
2023-05-23T14:44:06.792Z,14.87
2023-05-23T14:46:34.607Z,18.63
2023-05-23T14:49:02.302Z,14.80
2023-05-23T14:51:44.624Z,21.27
2023-05-23T14:54:17.996Z,17.30
2023-05-23T14:56:45.641Z,15.20
2023-05-23T14:59:13.639Z,18.27
2023-05-23T15:01:41.692Z,15.80
2023-05-23T15:04:10.314Z,15.37
2023-05-23T15:06:38.362Z,11.63
2023-05-23T15:09:06.062Z,11.20
2023-05-23T15:11:37.069Z,13.17
2023-05-23T15:14:04.846Z,15.80
2023-05-23T15:16:33.319Z,18.50
2023-05-23T15:19:01.512Z,17.83
2023-05-23T15:21:29.494Z,24.73
2023-05-23T15:23:57.728Z,21.80
2023-05-23T15:26:26.688Z,14.47
2023-05-23T15:28:56.220Z,19.10
2023-05-23T15:31:23.891Z,20.73
2023-05-23T15:33:51.603Z,13.03
2023-05-23T15:36:19.240Z,14.57
2023-05-23T15:38:46.893Z,14.83
2023-05-23T15:41:14.589Z,17.90
2023-05-23T15:43:42.220Z,20.67
2023-05-23T15:46:11.315Z,15.50
2023-05-23T15:48:38.988Z,13.83
2023-05-23T15:51:07.151Z,13.10
2023-05-23T15:53:43.252Z,14.37
2023-05-23T15:56:22.730Z,15.67
2023-05-23T15:58:50.356Z,17.27
2023-05-23T16:01:19.493Z,26.30
2023-05-23T16:03:47.261Z,16.17
2023-05-23T16:06:15.247Z,16.43
2023-05-23T16:08:42.854Z,17.63
2023-05-23T16:11:10.567Z,14.60
2023-05-23T16:13:38.277Z,19.77
2023-05-23T16:16:06.407Z,17.07
2023-05-23T16:18:35.732Z,11.87
2023-05-23T16:21:03.480Z,21.53
2023-05-23T16:23:31.235Z,16.30
2023-05-23T16:25:58.912Z,19.10
2023-05-23T16:28:28.490Z,20.30
2023-05-23T16:30:56.738Z,16.87
2023-05-23T16:33:24.621Z,20.23
2023-05-23T16:35:53.594Z,16.83
2023-05-23T16:38:21.270Z,17.43
2023-05-23T16:40:49.055Z,20.70
2023-05-23T16:43:16.860Z,15.27
2023-05-23T16:45:44.692Z,28.97
2023-05-23T16:48:12.556Z,16.70
2023-05-23T16:50:40.718Z,17.60
2023-05-23T16:53:09.866Z,20.90
2023-05-23T16:55:37.482Z,22.30
2023-05-23T16:58:05.138Z,16.37
2023-05-23T17:00:32.760Z,16.00
2023-05-23T17:03:00.744Z,14.43
2023-05-23T17:05:28.538Z,13.60
2023-05-23T17:07:56.284Z,17.70
2023-05-23T17:10:25.567Z,15.57
2023-05-23T17:12:53.224Z,22.50
2023-05-23T17:15:21.227Z,20.63
2023-05-23T17:17:48.898Z,13.73
2023-05-23T17:20:16.768Z,21.80
2023-05-23T17:22:44.596Z,16.20
2023-05-23T17:25:12.319Z,14.13
2023-05-23T17:27:42.074Z,11.73
2023-05-23T17:30:14.514Z,16.97
2023-05-23T17:32:43.314Z,24.07
2023-05-23T17:35:11.786Z,14.40
2023-05-23T17:37:43.139Z,22.03
2023-05-23T17:40:11.847Z,17.30
2023-05-23T17:42:41.811Z,18.47
2023-05-23T17:45:10.501Z,21.50
2023-05-23T17:47:38.139Z,16.67
2023-05-23T17:50:07.279Z,13.03
2023-05-23T17:52:35.189Z,19.30
2023-05-23T17:55:03.007Z,16.23
2023-05-23T17:57:31.271Z,17.20
2023-05-23T18:00:00.479Z,18.13
2023-05-23T18:02:28.275Z,15.20
2023-05-23T18:04:56.541Z,17.40
2023-05-23T18:07:24.434Z,15.60
2023-05-23T18:09:52.144Z,13.83
2023-05-23T18:12:19.808Z,14.20
2023-05-23T18:14:48.255Z,18.40
2023-05-23T18:17:18.518Z,17.90
2023-05-23T18:19:46.572Z,24.03
2023-05-23T18:22:14.316Z,22.20
2023-05-23T18:24:41.992Z,15.30
2023-05-23T18:27:09.673Z,21.77
2023-05-23T18:29:37.501Z,24.87
2023-05-23T18:32:05.576Z,20.13
2023-05-23T18:34:34.562Z,13.90
2023-05-23T18:37:03.093Z,22.27
2023-05-23T18:39:31.168Z,23.37
2023-05-23T18:41:58.952Z,15.30
2023-05-23T18:44:26.802Z,17.03
2023-05-23T18:46:54.546Z,22.73
2023-05-23T18:49:22.296Z,19.20
2023-05-23T18:51:54.301Z,17.37
2023-05-23T18:54:22.080Z,30.00
2023-05-23T18:56:49.710Z,24.37
2023-05-23T18:59:17.609Z,23.47
2023-05-23T19:01:46.948Z,21.63
2023-05-23T19:04:15.000Z,20.63
2023-05-23T19:06:42.799Z,16.90
2023-05-23T19:09:11.986Z,17.43
2023-05-23T19:11:40.063Z,17.60
2023-05-23T19:14:08.811Z,20.87
2023-05-23T19:16:36.499Z,21.03
2023-05-23T19:19:04.426Z,14.50
2023-05-23T19:21:32.537Z,19.60
2023-05-23T19:24:00.521Z,28.80
2023-05-23T19:26:29.952Z,24.20
2023-05-23T19:28:57.703Z,22.40
2023-05-23T19:31:25.491Z,21.77
2023-05-23T19:33:53.212Z,21.03
2023-05-23T19:36:21.220Z,22.37
2023-05-23T19:38:48.858Z,20.03
2023-05-23T19:41:17.438Z,28.07
2023-05-23T19:43:47.872Z,15.60
2023-05-23T19:46:15.949Z,25.87
2023-05-23T19:48:43.792Z,18.83
2023-05-23T19:51:11.733Z,23.20
2023-05-23T19:53:39.390Z,19.77
2023-05-23T19:56:07.242Z,32.77
2023-05-23T19:58:36.072Z,29.30
2023-05-23T20:01:05.332Z,18.73
2023-05-23T20:03:33.042Z,26.03
2023-05-23T20:06:00.735Z,24.17
2023-05-23T20:08:28.440Z,21.43
2023-05-23T20:10:56.301Z,23.17
2023-05-23T20:13:23.960Z,22.07
2023-05-23T20:15:52.030Z,21.73
2023-05-23T20:18:21.495Z,29.23
2023-05-23T20:20:49.187Z,33.10
2023-05-23T20:23:16.855Z,25.23
2023-05-23T20:25:44.505Z,31.70
2023-05-23T20:28:12.177Z,28.40
2023-05-23T20:30:39.911Z,26.17
2023-05-23T20:33:07.757Z,23.00
2023-05-23T20:35:36.915Z,26.03
2023-05-23T20:38:04.787Z,41.73
2023-05-23T20:40:33.630Z,35.27
2023-05-23T20:43:04.714Z,32.80
2023-05-23T20:45:33.134Z,26.20
2023-05-23T20:48:01.144Z,33.90
2023-05-23T20:50:31.256Z,33.43
2023-05-23T20:53:02.221Z,23.37
2023-05-23T20:55:30.513Z,36.80
2023-05-23T20:57:58.133Z,24.03
2023-05-23T21:00:25.761Z,28.77
2023-05-23T21:02:54.683Z,29.20
2023-05-23T21:05:22.378Z,30.43
2023-05-23T21:07:50.029Z,27.30
2023-05-23T21:10:19.174Z,35.37
2023-05-23T21:12:50.112Z,36.67
2023-05-23T21:15:18.563Z,35.37
2023-05-23T21:17:46.445Z,22.17
2023-05-23T21:20:14.568Z,37.00
2023-05-23T21:22:42.484Z,29.87
2023-05-23T21:25:11.001Z,37.60
2023-05-23T21:27:40.248Z,28.60
2023-05-23T21:30:09.303Z,32.40
2023-05-23T21:32:37.059Z,23.93
2023-05-23T21:35:05.106Z,42.40
2023-05-23T21:37:32.971Z,37.70
2023-05-23T21:40:00.658Z,41.67
2023-05-23T21:42:28.654Z,35.70
2023-05-23T21:44:57.758Z,35.57
2023-05-23T21:47:26.195Z,33.23
2023-05-23T21:49:54.190Z,38.20
2023-05-23T21:52:22.617Z,40.03
2023-05-23T21:54:50.274Z,43.10
2023-05-23T21:57:17.958Z,36.27
2023-05-23T21:59:45.741Z,44.53
2023-05-23T22:02:15.415Z,56.30
2023-05-23T22:04:43.214Z,32.27
2023-05-23T22:07:10.857Z,34.30
2023-05-23T22:09:38.605Z,29.33
2023-05-23T22:12:07.440Z,30.80
2023-05-23T22:14:35.121Z,39.63
2023-05-23T22:17:03.735Z,33.97
2023-05-23T22:19:32.762Z,33.37
2023-05-23T22:22:00.691Z,29.87
2023-05-23T22:24:29.178Z,35.50
2023-05-23T22:26:58.227Z,38.80
2023-05-23T22:29:26.288Z,39.43
2023-05-23T22:31:54.144Z,36.30
2023-05-23T22:34:21.820Z,39.10
2023-05-23T22:36:50.932Z,32.93
2023-05-23T22:39:18.571Z,34.97
2023-05-23T22:41:46.680Z,32.60
2023-05-23T22:44:14.317Z,40.83
2023-05-23T22:46:43.366Z,35.27
2023-05-23T22:49:11.105Z,29.50
2023-05-23T22:51:38.862Z,26.50
2023-05-23T22:54:08.076Z,36.27
2023-05-23T22:56:35.737Z,29.53
2023-05-23T22:59:03.341Z,34.80
2023-05-23T23:01:31.563Z,28.97
2023-05-23T23:03:59.615Z,45.67
2023-05-23T23:06:27.307Z,38.87
2023-05-23T23:08:55.009Z,27.73
2023-05-23T23:11:24.009Z,30.67
2023-05-23T23:13:51.952Z,36.63
2023-05-23T23:16:21.005Z,28.80
2023-05-23T23:18:49.025Z,30.33
2023-05-23T23:21:16.656Z,36.90
2023-05-23T23:23:44.324Z,33.47
2023-05-23T23:26:12.121Z,40.00
2023-05-23T23:28:41.156Z,41.90
2023-05-23T23:31:08.871Z,33.43
2023-05-23T23:33:36.473Z,35.90
2023-05-23T23:36:04.535Z,42.07
2023-05-23T23:38:32.189Z,37.23
2023-05-23T23:40:59.824Z,40.03
2023-05-23T23:43:27.452Z,34.17
2023-05-23T23:45:57.243Z,43.93
2023-05-23T23:48:24.869Z,47.17
2023-05-23T23:50:52.545Z,36.27
2023-05-23T23:53:21.356Z,34.13
2023-05-23T23:55:49.119Z,36.07
2023-05-23T23:58:17.324Z,37.63
